createdAt,value
2022-09-04T00:00:32.293Z,1026.817779736
2022-09-04T00:01:32.256Z,1026.614597008
2022-09-04T00:02:32.281Z,1026.9193711
2022-09-04T00:03:32.351Z,1026.7161883719998
2022-09-04T00:04:32.395Z,1026.817779736
2022-09-04T00:05:32.275Z,1026.7161883719998
2022-09-04T00:06:32.281Z,1026.7161883719998
2022-09-04T00:07:32.266Z,1026.817779736
2022-09-04T00:08:32.291Z,1026.7161883719998
2022-09-04T00:09:32.293Z,1026.7161883719998
2022-09-04T00:10:32.250Z,1026.7161883719998
2022-09-04T00:11:32.282Z,1026.817779736
2022-09-04T00:12:32.282Z,1026.614597008
2022-09-04T00:13:32.267Z,1026.7161883719998
2022-09-04T00:14:32.246Z,1026.614597008
2022-09-04T00:15:32.270Z,1026.817779736
2022-09-04T00:16:32.317Z,1026.817779736
2022-09-04T00:17:32.295Z,1026.817779736
2022-09-04T00:18:32.260Z,1026.817779736
2022-09-04T00:19:32.300Z,1026.614597008
2022-09-04T00:20:32.542Z,1026.7161883719998
2022-09-04T00:21:32.302Z,1026.7161883719998
2022-09-04T00:22:32.266Z,1026.817779736
2022-09-04T00:23:32.336Z,1026.817779736
2022-09-04T00:24:32.276Z,1026.817779736
2022-09-04T00:25:32.277Z,1026.614597008
2022-09-04T00:26:32.240Z,1026.614597008
2022-09-04T00:27:35.943Z,1026.817779736
2022-09-04T00:28:32.280Z,1026.614597008
2022-09-04T00:29:32.271Z,1026.817779736
2022-09-04T00:30:32.336Z,1026.7161883719998
2022-09-04T00:31:32.284Z,1026.7161883719998
2022-09-04T00:32:32.285Z,1026.614597008
2022-09-04T00:33:32.285Z,1026.817779736
2022-09-04T00:34:32.313Z,1026.41141428
2022-09-04T00:35:32.300Z,1026.7161883719998
2022-09-04T00:36:32.269Z,1026.7161883719998
2022-09-04T00:37:32.263Z,1026.513005644
2022-09-04T00:38:32.292Z,1026.41141428
2022-09-04T00:39:32.315Z,1026.614597008
2022-09-04T00:40:32.303Z,1026.614597008
2022-09-04T00:41:32.334Z,1026.513005644
2022-09-04T00:42:32.263Z,1026.7161883719998
2022-09-04T00:43:32.260Z,1026.817779736
2022-09-04T00:44:32.286Z,1026.614597008
2022-09-04T00:45:32.291Z,1026.614597008
2022-09-04T00:46:32.269Z,1026.614597008
2022-09-04T00:47:32.279Z,1026.7161883719998
2022-09-04T00:48:32.291Z,1026.614597008
2022-09-04T00:49:32.256Z,1026.614597008
2022-09-04T00:50:32.297Z,1026.7161883719998
2022-09-04T00:51:32.266Z,1026.7161883719998
2022-09-04T00:52:36.730Z,1026.7161883719998
2022-09-04T00:53:32.262Z,1026.7161883719998
2022-09-04T00:54:32.352Z,1026.614597008
2022-09-04T00:55:32.286Z,1026.817779736
2022-09-04T00:56:32.292Z,1026.7161883719998
2022-09-04T00:57:32.243Z,1026.9193711
2022-09-04T00:58:32.256Z,1026.7161883719998
2022-09-04T00:59:32.296Z,1026.7161883719998
2022-09-04T01:00:32.279Z,1026.614597008
2022-09-04T01:01:32.479Z,1026.614597008
2022-09-04T01:02:32.406Z,1026.614597008
2022-09-04T01:03:32.395Z,1026.7161883719998
2022-09-04T01:04:32.301Z,1026.7161883719998
2022-09-04T01:05:32.245Z,1026.817779736
2022-09-04T01:06:32.264Z,1026.817779736
2022-09-04T01:07:32.327Z,1026.7161883719998
2022-09-04T01:08:32.375Z,1026.7161883719998
2022-09-04T01:09:32.246Z,1026.7161883719998
2022-09-04T01:10:32.307Z,1026.7161883719998
2022-09-04T01:11:32.278Z,1026.9193711
2022-09-04T01:12:32.283Z,1026.7161883719998
2022-09-04T01:13:32.270Z,1026.9193711
2022-09-04T01:14:32.268Z,1026.817779736
2022-09-04T01:15:32.320Z,1026.817779736
2022-09-04T01:16:32.369Z,1026.817779736
2022-09-04T01:17:32.239Z,1026.817779736
2022-09-04T01:18:32.316Z,1027.020962464
2022-09-04T01:19:32.279Z,1026.7161883719998
2022-09-04T01:20:32.330Z,1026.9193711
2022-09-04T01:21:32.264Z,1027.122553828
2022-09-04T01:22:32.298Z,1026.9193711
2022-09-04T01:23:32.390Z,1026.817779736
2022-09-04T01:24:32.296Z,1026.817779736
2022-09-04T01:25:32.259Z,1027.020962464
2022-09-04T01:26:32.295Z,1026.9193711
2022-09-04T01:27:32.281Z,1026.9193711
2022-09-04T01:28:32.255Z,1026.817779736
2022-09-04T01:29:32.285Z,1026.817779736
2022-09-04T01:30:32.280Z,1026.817779736
2022-09-04T01:31:32.344Z,1027.020962464
2022-09-04T01:32:32.241Z,1026.9193711
2022-09-04T01:33:32.274Z,1026.817779736
2022-09-04T01:34:32.289Z,1026.9193711
2022-09-04T01:35:32.261Z,1026.9193711
2022-09-04T01:36:32.244Z,1027.122553828
2022-09-04T01:37:32.258Z,1026.9193711
2022-09-04T01:38:32.278Z,1026.513005644
2022-09-04T01:39:32.474Z,1026.7161883719998
2022-09-04T01:40:35.658Z,1026.817779736
2022-09-04T01:41:37.706Z,1026.817779736
2022-09-04T01:42:32.444Z,1026.614597008
2022-09-04T01:43:32.446Z,1026.9193711
2022-09-04T01:44:32.341Z,1026.7161883719998
2022-09-04T01:45:32.524Z,1026.9193711
2022-09-04T01:46:32.424Z,1026.614597008
2022-09-04T01:47:32.469Z,1026.7161883719998
2022-09-04T01:48:32.387Z,1026.817779736
2022-09-04T01:49:32.331Z,1026.817779736
2022-09-04T01:50:32.278Z,1026.7161883719998
2022-09-04T01:51:32.285Z,1026.817779736
2022-09-04T01:52:32.243Z,1026.7161883719998
2022-09-04T01:53:33.018Z,1026.7161883719998
2022-09-04T01:54:32.281Z,1026.817779736
2022-09-04T01:55:32.266Z,1026.817779736
2022-09-04T01:56:32.238Z,1026.817779736
2022-09-04T01:57:32.267Z,1026.7161883719998
2022-09-04T01:58:32.276Z,1026.614597008
2022-09-04T01:59:32.261Z,1026.7161883719998
2022-09-04T02:00:32.312Z,1026.7161883719998
2022-09-04T02:01:32.340Z,1026.7161883719998
2022-09-04T02:02:32.603Z,1026.614597008
2022-09-04T02:03:32.276Z,1026.7161883719998
2022-09-04T02:04:32.233Z,1026.817779736
2022-09-04T02:05:32.310Z,1026.9193711
2022-09-04T02:06:32.267Z,1026.817779736
2022-09-04T02:07:32.268Z,1026.9193711
2022-09-04T02:08:32.402Z,1026.9193711
2022-09-04T02:09:32.286Z,1026.9193711
2022-09-04T02:10:32.260Z,1026.614597008
2022-09-04T02:11:32.316Z,1026.614597008
2022-09-04T02:12:32.282Z,1026.817779736
2022-09-04T02:13:32.264Z,1026.9193711
2022-09-04T02:14:32.266Z,1026.817779736
2022-09-04T02:15:32.297Z,1026.9193711
2022-09-04T02:16:32.349Z,1026.817779736
2022-09-04T02:17:32.286Z,1026.817779736
2022-09-04T02:18:32.249Z,1026.9193711
2022-09-04T02:19:32.249Z,1026.7161883719998
2022-09-04T02:20:32.257Z,1027.020962464
2022-09-04T02:21:32.264Z,1026.9193711
2022-09-04T02:22:32.284Z,1026.817779736
2022-09-04T02:23:32.386Z,1026.817779736
2022-09-04T02:24:32.293Z,1026.9193711
2022-09-04T02:25:32.276Z,1026.817779736
2022-09-04T02:26:32.271Z,1026.7161883719998
2022-09-04T02:27:32.270Z,1026.817779736
2022-09-04T02:28:32.267Z,1026.817779736
2022-09-04T02:29:33.233Z,1027.020962464
2022-09-04T02:30:32.291Z,1026.9193711
2022-09-04T02:31:32.294Z,1026.7161883719998
2022-09-04T02:32:32.245Z,1026.7161883719998
2022-09-04T02:33:32.314Z,1026.9193711
2022-09-04T02:34:32.292Z,1026.817779736
2022-09-04T02:35:32.287Z,1026.817779736
2022-09-04T02:36:32.259Z,1026.817779736
2022-09-04T02:37:32.286Z,1027.020962464
2022-09-04T02:38:32.259Z,1027.020962464
2022-09-04T02:39:32.345Z,1027.122553828
2022-09-04T02:40:32.257Z,1027.020962464
2022-09-04T02:41:32.251Z,1026.817779736
2022-09-04T02:42:32.263Z,1026.9193711
2022-09-04T02:43:32.335Z,1027.020962464
2022-09-04T02:44:32.280Z,1027.020962464
2022-09-04T02:45:32.269Z,1026.817779736
2022-09-04T02:46:32.293Z,1026.817779736
2022-09-04T02:47:32.270Z,1026.817779736
2022-09-04T02:48:32.290Z,1026.9193711
2022-09-04T02:49:32.276Z,1026.7161883719998
2022-09-04T02:50:32.238Z,1026.817779736
2022-09-04T02:51:32.272Z,1027.020962464
2022-09-04T02:52:32.262Z,1027.122553828
2022-09-04T02:53:32.426Z,1027.020962464
2022-09-04T02:54:32.235Z,1026.9193711
2022-09-04T02:55:32.432Z,1026.817779736
2022-09-04T02:56:32.258Z,1026.9193711
2022-09-04T02:57:32.246Z,1027.020962464
2022-09-04T02:58:32.371Z,1026.9193711
2022-09-04T02:59:32.265Z,1026.817779736
2022-09-04T03:00:32.312Z,1026.9193711
2022-09-04T03:01:32.321Z,1026.9193711
2022-09-04T03:02:32.310Z,1026.9193711
2022-09-04T03:03:32.270Z,1026.817779736
2022-09-04T03:04:32.267Z,1026.817779736
2022-09-04T03:05:32.251Z,1027.020962464
2022-09-04T03:06:32.238Z,1026.817779736
2022-09-04T03:07:32.323Z,1027.020962464
2022-09-04T03:08:36.319Z,1026.817779736
2022-09-04T03:09:32.263Z,1027.020962464
2022-09-04T03:10:32.339Z,1026.9193711
2022-09-04T03:11:32.417Z,1027.122553828
2022-09-04T03:12:32.329Z,1027.020962464
2022-09-04T03:13:32.481Z,1026.817779736
2022-09-04T03:14:32.369Z,1027.122553828
2022-09-04T03:15:32.436Z,1027.224145192
2022-09-04T03:16:32.501Z,1027.122553828
2022-09-04T03:17:32.463Z,1027.122553828
2022-09-04T03:18:32.275Z,1027.122553828
2022-09-04T03:19:32.351Z,1026.9193711
2022-09-04T03:20:33.396Z,1026.817779736
2022-09-04T03:21:32.349Z,1026.9193711
2022-09-04T03:22:32.402Z,1027.020962464
2022-09-04T03:23:32.288Z,1027.020962464
2022-09-04T03:24:32.429Z,1026.9193711
2022-09-04T03:25:32.446Z,1027.122553828
2022-09-04T03:26:32.366Z,1026.9193711
2022-09-04T03:27:32.260Z,1027.020962464
2022-09-04T03:28:32.245Z,1026.9193711
2022-09-04T03:29:32.248Z,1026.9193711
2022-09-04T03:30:32.256Z,1027.020962464
2022-09-04T03:31:32.280Z,1027.122553828
2022-09-04T03:32:32.249Z,1027.224145192
2022-09-04T03:33:32.259Z,1026.9193711
2022-09-04T03:34:32.264Z,1027.224145192
2022-09-04T03:35:32.226Z,1027.020962464
2022-09-04T03:36:32.249Z,1027.020962464
2022-09-04T03:37:32.267Z,1027.020962464
2022-09-04T03:38:32.342Z,1026.817779736
2022-09-04T03:39:32.312Z,1027.224145192
2022-09-04T03:40:32.337Z,1027.122553828
2022-09-04T03:41:32.273Z,1027.122553828
2022-09-04T03:42:32.392Z,1027.224145192
2022-09-04T03:43:32.228Z,1027.224145192
2022-09-04T03:44:32.261Z,1027.020962464
2022-09-04T03:45:32.274Z,1027.020962464
2022-09-04T03:46:32.318Z,1027.020962464
2022-09-04T03:47:32.282Z,1027.122553828
2022-09-04T03:48:32.235Z,1027.020962464
2022-09-04T03:49:32.283Z,1026.9193711
2022-09-04T03:50:32.258Z,1027.122553828
2022-09-04T03:51:32.229Z,1027.122553828
2022-09-04T03:52:32.239Z,1027.224145192
2022-09-04T03:53:32.329Z,1027.020962464
2022-09-04T03:54:32.244Z,1026.9193711
2022-09-04T03:55:32.243Z,1027.020962464
2022-09-04T03:56:32.298Z,1027.122553828
2022-09-04T03:57:32.262Z,1027.224145192
2022-09-04T03:58:32.236Z,1027.224145192
2022-09-04T03:59:32.232Z,1027.224145192
2022-09-04T04:00:32.434Z,1027.122553828
2022-09-04T04:01:32.250Z,1026.9193711
2022-09-04T04:02:32.281Z,1027.325736556
2022-09-04T04:03:32.302Z,1027.020962464
2022-09-04T04:04:32.245Z,1027.122553828
2022-09-04T04:05:32.254Z,1026.9193711
2022-09-04T04:06:32.293Z,1027.325736556
2022-09-04T04:07:32.241Z,1027.122553828
2022-09-04T04:08:32.248Z,1027.224145192
2022-09-04T04:09:32.240Z,1027.224145192
2022-09-04T04:10:32.226Z,1027.325736556
2022-09-04T04:11:32.245Z,1027.42732792
2022-09-04T04:12:32.275Z,1027.122553828
2022-09-04T04:13:32.405Z,1027.224145192
2022-09-04T04:14:32.256Z,1027.122553828
2022-09-04T04:15:32.246Z,1027.325736556
2022-09-04T04:16:32.332Z,1027.325736556
2022-09-04T04:17:32.260Z,1027.325736556
2022-09-04T04:18:32.272Z,1027.42732792
2022-09-04T04:19:32.228Z,1027.224145192
2022-09-04T04:20:32.234Z,1027.325736556
2022-09-04T04:21:32.254Z,1027.224145192
2022-09-04T04:22:32.224Z,1027.42732792
2022-09-04T04:23:32.238Z,1027.325736556
2022-09-04T04:24:32.275Z,1027.325736556
2022-09-04T04:25:32.262Z,1027.325736556
2022-09-04T04:26:32.311Z,1027.325736556
2022-09-04T04:27:32.223Z,1027.224145192
2022-09-04T04:28:32.265Z,1027.325736556
2022-09-04T04:29:32.236Z,1027.224145192
2022-09-04T04:30:32.262Z,1027.224145192
2022-09-04T04:31:32.305Z,1027.42732792
2022-09-04T04:32:32.228Z,1027.42732792
2022-09-04T04:33:32.243Z,1027.42732792
2022-09-04T04:34:32.252Z,1027.42732792
2022-09-04T04:35:32.256Z,1027.42732792
2022-09-04T04:36:32.254Z,1027.6305106480002
2022-09-04T04:37:32.259Z,1027.42732792
2022-09-04T04:38:32.252Z,1027.528919284
2022-09-04T04:39:32.291Z,1027.6305106480002
2022-09-04T04:40:32.267Z,1027.325736556
2022-09-04T04:41:32.290Z,1027.528919284
2022-09-04T04:42:32.259Z,1027.325736556
2022-09-04T04:43:32.310Z,1027.325736556
2022-09-04T04:44:32.233Z,1027.528919284
2022-09-04T04:45:32.242Z,1027.42732792
2022-09-04T04:46:32.298Z,1027.732102012
2022-09-04T04:47:32.262Z,1027.325736556
2022-09-04T04:48:32.236Z,1027.325736556
2022-09-04T04:49:32.246Z,1027.528919284
2022-09-04T04:50:32.255Z,1027.6305106480002
2022-09-04T04:51:32.253Z,1027.42732792
2022-09-04T04:52:32.246Z,1027.6305106480002
2022-09-04T04:53:32.267Z,1027.528919284
2022-09-04T04:54:32.258Z,1027.42732792
2022-09-04T04:55:32.265Z,1027.528919284
2022-09-04T04:56:32.250Z,1027.6305106480002
2022-09-04T04:57:32.257Z,1027.732102012
2022-09-04T04:58:32.265Z,1027.6305106480002
2022-09-04T04:59:32.243Z,1027.42732792
2022-09-04T05:00:32.258Z,1027.6305106480002
2022-09-04T05:01:32.339Z,1027.6305106480002
2022-09-04T05:02:32.349Z,1027.833693376
2022-09-04T05:03:32.290Z,1027.528919284
2022-09-04T05:04:32.241Z,1027.833693376
2022-09-04T05:05:32.254Z,1027.6305106480002
2022-09-04T05:06:32.248Z,1027.833693376
2022-09-04T05:07:32.253Z,1027.528919284
2022-09-04T05:08:32.247Z,1027.528919284
2022-09-04T05:09:32.219Z,1027.833693376
2022-09-04T05:10:32.240Z,1027.732102012
2022-09-04T05:11:32.245Z,1027.732102012
2022-09-04T05:12:32.253Z,1027.6305106480002
2022-09-04T05:13:32.242Z,1027.6305106480002
2022-09-04T05:14:32.249Z,1027.732102012
2022-09-04T05:15:32.229Z,1027.6305106480002
2022-09-04T05:16:32.283Z,1027.833693376
2022-09-04T05:17:32.233Z,1027.732102012
2022-09-04T05:18:32.253Z,1027.732102012
2022-09-04T05:19:32.238Z,1027.732102012
2022-09-04T05:20:32.264Z,1027.6305106480002
2022-09-04T05:21:32.215Z,1027.6305106480002
2022-09-04T05:22:34.313Z,1027.528919284
2022-09-04T05:23:32.245Z,1027.528919284
2022-09-04T05:24:32.249Z,1027.6305106480002
2022-09-04T05:25:32.235Z,1027.6305106480002
2022-09-04T05:26:32.239Z,1027.6305106480002
2022-09-04T05:27:32.234Z,1027.732102012
2022-09-04T05:28:32.267Z,1027.833693376
2022-09-04T05:29:32.706Z,1027.93528474
2022-09-04T05:30:32.278Z,1027.833693376
2022-09-04T05:31:32.264Z,1027.732102012
2022-09-04T05:32:32.243Z,1027.528919284
2022-09-04T05:33:32.270Z,1027.732102012
2022-09-04T05:34:32.244Z,1027.732102012
2022-09-04T05:35:35.556Z,1027.833693376
2022-09-04T05:36:32.258Z,1027.6305106480002
2022-09-04T05:37:32.224Z,1027.833693376
2022-09-04T05:38:32.368Z,1027.6305106480002
2022-09-04T05:39:32.346Z,1027.732102012
2022-09-04T05:40:32.228Z,1027.6305106480002
2022-09-04T05:41:32.237Z,1027.528919284
2022-09-04T05:42:32.240Z,1027.93528474
2022-09-04T05:43:32.250Z,1027.732102012
2022-09-04T05:44:32.247Z,1027.732102012
2022-09-04T05:45:32.238Z,1027.732102012
2022-09-04T05:46:32.505Z,1027.732102012
2022-09-04T05:47:32.237Z,1027.732102012
2022-09-04T05:48:32.246Z,1027.732102012
2022-09-04T05:49:32.242Z,1027.528919284
2022-09-04T05:50:32.246Z,1027.6305106480002
2022-09-04T05:51:32.236Z,1028.036876104
2022-09-04T05:52:32.260Z,1027.833693376
2022-09-04T05:53:32.202Z,1027.732102012
2022-09-04T05:54:32.258Z,1027.93528474
2022-09-04T05:55:32.357Z,1027.732102012
2022-09-04T05:56:32.226Z,1027.6305106480002
2022-09-04T05:57:32.300Z,1027.833693376
2022-09-04T05:58:32.224Z,1027.6305106480002
2022-09-04T05:59:32.248Z,1027.6305106480002
2022-09-04T06:00:32.246Z,1027.833693376
2022-09-04T06:01:32.308Z,1027.732102012
2022-09-04T06:02:32.384Z,1027.833693376
2022-09-04T06:03:32.485Z,1027.93528474
2022-09-04T06:04:32.227Z,1028.138467468
2022-09-04T06:05:32.241Z,1027.833693376
2022-09-04T06:06:32.236Z,1028.036876104
2022-09-04T06:07:32.252Z,1028.138467468
2022-09-04T06:08:32.592Z,1027.833693376
2022-09-04T06:09:32.248Z,1027.732102012
2022-09-04T06:10:32.255Z,1027.833693376
2022-09-04T06:11:32.264Z,1027.833693376
2022-09-04T06:12:32.242Z,1027.833693376
2022-09-04T06:13:32.397Z,1027.93528474
2022-09-04T06:14:32.284Z,1028.036876104
2022-09-04T06:15:32.244Z,1027.93528474
2022-09-04T06:16:32.216Z,1027.93528474
2022-09-04T06:17:32.239Z,1028.138467468
2022-09-04T06:18:32.372Z,1027.732102012
2022-09-04T06:19:32.225Z,1028.036876104
2022-09-04T06:20:32.222Z,1028.036876104
2022-09-04T06:21:32.282Z,1028.036876104
2022-09-04T06:22:32.221Z,1028.138467468
2022-09-04T06:23:32.265Z,1027.833693376
2022-09-04T06:24:32.214Z,1028.036876104
2022-09-04T06:25:32.243Z,1028.138467468
2022-09-04T06:26:32.251Z,1028.036876104
2022-09-04T06:27:35.441Z,1028.036876104
2022-09-04T06:28:32.218Z,1028.036876104
2022-09-04T06:29:32.258Z,1028.036876104
2022-09-04T06:30:32.256Z,1028.036876104
2022-09-04T06:31:32.260Z,1028.036876104
2022-09-04T06:32:32.264Z,1028.036876104
2022-09-04T06:33:32.514Z,1027.833693376
2022-09-04T06:34:32.326Z,1027.833693376
2022-09-04T06:35:32.278Z,1028.138467468
2022-09-04T06:36:32.212Z,1027.732102012
2022-09-04T06:37:32.235Z,1027.732102012
2022-09-04T06:38:32.246Z,1027.93528474
2022-09-04T06:39:32.318Z,1027.6305106480002
2022-09-04T06:40:32.233Z,1028.036876104
2022-09-04T06:41:32.232Z,1027.93528474
2022-09-04T06:42:32.358Z,1027.93528474
2022-09-04T06:43:32.306Z,1027.833693376
2022-09-04T06:44:32.237Z,1028.036876104
2022-09-04T06:45:32.270Z,1027.833693376
2022-09-04T06:46:32.304Z,1028.2400588320002
2022-09-04T06:47:32.239Z,1028.036876104
2022-09-04T06:48:32.251Z,1027.93528474
2022-09-04T06:49:32.256Z,1028.036876104
2022-09-04T06:50:32.257Z,1028.3077864079999
2022-09-04T06:51:32.458Z,1028.3077864079999
2022-09-04T06:52:32.236Z,1028.409377772
2022-09-04T06:53:32.222Z,1028.2400588320002
2022-09-04T06:54:32.478Z,1028.2400588320002
2022-09-04T06:55:32.225Z,1028.5109691359999
2022-09-04T06:56:32.264Z,1028.138467468
2022-09-04T06:57:32.341Z,1028.138467468
2022-09-04T06:58:32.311Z,1028.138467468
2022-09-04T06:59:32.207Z,1028.2400588320002
2022-09-04T07:00:32.209Z,1028.5109691359999
2022-09-04T07:01:32.331Z,1028.3077864079999
2022-09-04T07:02:32.357Z,1028.3077864079999
2022-09-04T07:03:32.245Z,1028.409377772
2022-09-04T07:04:32.467Z,1028.3077864079999
2022-09-04T07:05:32.240Z,1028.409377772
2022-09-04T07:06:32.234Z,1028.409377772
2022-09-04T07:07:32.234Z,1028.3077864079999
2022-09-04T07:08:32.249Z,1028.5109691359999
2022-09-04T07:09:32.243Z,1028.2400588320002
2022-09-04T07:10:32.251Z,1028.138467468
2022-09-04T07:11:32.218Z,1028.6125605
2022-09-04T07:12:32.249Z,1028.3077864079999
2022-09-04T07:13:32.247Z,1028.409377772
2022-09-04T07:14:32.247Z,1028.5109691359999
2022-09-04T07:15:32.249Z,1028.5109691359999
2022-09-04T07:16:32.428Z,1028.6125605
2022-09-04T07:17:32.235Z,1028.5109691359999
2022-09-04T07:18:32.328Z,1028.409377772
2022-09-04T07:19:32.211Z,1028.6125605
2022-09-04T07:20:32.245Z,1028.6125605
2022-09-04T07:21:32.203Z,1028.5109691359999
2022-09-04T07:22:32.263Z,1028.714151864
2022-09-04T07:23:32.219Z,1028.6125605
2022-09-04T07:24:32.281Z,1028.6125605
2022-09-04T07:25:32.253Z,1028.6125605
2022-09-04T07:26:32.238Z,1028.6125605
2022-09-04T07:27:32.274Z,1028.714151864
2022-09-04T07:28:32.233Z,1028.6125605
2022-09-04T07:29:32.243Z,1028.714151864
2022-09-04T07:30:32.357Z,1028.815743228
2022-09-04T07:31:32.274Z,1028.9173345919999
2022-09-04T07:32:32.238Z,1028.815743228
2022-09-04T07:33:32.237Z,1028.815743228
2022-09-04T07:34:32.262Z,1028.6125605
2022-09-04T07:35:32.220Z,1028.6125605
2022-09-04T07:36:32.257Z,1028.714151864
2022-09-04T07:37:32.237Z,1028.9173345919999
2022-09-04T07:38:32.223Z,1028.9173345919999
2022-09-04T07:39:32.247Z,1028.9173345919999
2022-09-04T07:40:32.224Z,1028.9173345919999
2022-09-04T07:41:32.219Z,1028.815743228
2022-09-04T07:42:32.241Z,1028.9173345919999
2022-09-04T07:43:32.371Z,1028.815743228
2022-09-04T07:44:32.238Z,1029.018925956
2022-09-04T07:45:32.242Z,1028.6125605
2022-09-04T07:46:32.264Z,1028.815743228
2022-09-04T07:47:32.223Z,1028.714151864
2022-09-04T07:48:32.264Z,1028.5109691359999
2022-09-04T07:49:32.225Z,1028.815743228
2022-09-04T07:50:32.234Z,1028.815743228
2022-09-04T07:51:32.215Z,1028.714151864
2022-09-04T07:52:32.237Z,1028.6125605
2022-09-04T07:53:32.235Z,1028.5109691359999
2022-09-04T07:54:32.217Z,1028.714151864
2022-09-04T07:55:32.233Z,1028.5109691359999
2022-09-04T07:56:32.204Z,1028.6125605
2022-09-04T07:57:32.229Z,1028.5109691359999
2022-09-04T07:58:32.227Z,1028.6125605
2022-09-04T07:59:32.221Z,1028.9173345919999
2022-09-04T08:00:32.231Z,1028.6125605
2022-09-04T08:01:33.543Z,1028.6125605
2022-09-04T08:02:32.228Z,1028.714151864
2022-09-04T08:03:32.219Z,1028.815743228
2022-09-04T08:04:32.247Z,1028.409377772
2022-09-04T08:05:32.255Z,1028.714151864
2022-09-04T08:06:32.245Z,1028.5109691359999
2022-09-04T08:07:32.262Z,1028.6125605
2022-09-04T08:08:32.221Z,1028.815743228
2022-09-04T08:09:32.243Z,1028.714151864
2022-09-04T08:10:32.206Z,1028.6125605
2022-09-04T08:11:32.217Z,1028.5109691359999
2022-09-04T08:12:32.222Z,1028.714151864
2022-09-04T08:13:32.271Z,1028.714151864
2022-09-04T08:14:32.462Z,1028.6125605
2022-09-04T08:15:32.242Z,1028.5109691359999
2022-09-04T08:16:32.270Z,1028.6125605
2022-09-04T08:17:32.219Z,1028.6125605
2022-09-04T08:18:32.328Z,1028.815743228
2022-09-04T08:19:32.210Z,1028.6125605
2022-09-04T08:20:32.198Z,1028.6125605
2022-09-04T08:21:32.277Z,1028.714151864
2022-09-04T08:22:32.284Z,1028.6125605
2022-09-04T08:23:32.384Z,1028.714151864
2022-09-04T08:24:32.200Z,1028.714151864
2022-09-04T08:25:32.222Z,1028.6125605
2022-09-04T08:26:32.311Z,1028.815743228
2022-09-04T08:27:32.222Z,1028.815743228
2022-09-04T08:28:32.332Z,1029.018925956
2022-09-04T08:29:32.233Z,1028.815743228
2022-09-04T08:30:32.229Z,1029.018925956
2022-09-04T08:31:32.234Z,1028.714151864
2022-09-04T08:32:37.901Z,1028.9173345919999
2022-09-04T08:33:32.217Z,1028.714151864
2022-09-04T08:34:32.231Z,1028.815743228
2022-09-04T08:35:32.242Z,1028.714151864
2022-09-04T08:36:32.202Z,1028.9173345919999
2022-09-04T08:37:32.228Z,1028.9173345919999
2022-09-04T08:38:32.218Z,1028.714151864
2022-09-04T08:39:32.300Z,1028.815743228
2022-09-04T08:40:32.204Z,1028.815743228
2022-09-04T08:41:32.230Z,1028.815743228
2022-09-04T08:42:32.242Z,1028.714151864
2022-09-04T08:43:32.244Z,1028.9173345919999
2022-09-04T08:44:32.291Z,1028.815743228
2022-09-04T08:45:32.231Z,1028.815743228
2022-09-04T08:46:32.280Z,1028.815743228
2022-09-04T08:47:32.781Z,1028.9173345919999
2022-09-04T08:48:32.217Z,1028.9173345919999
2022-09-04T08:49:32.231Z,1028.815743228
2022-09-04T08:50:32.221Z,1029.222108684
2022-09-04T08:51:32.215Z,1028.9173345919999
2022-09-04T08:52:32.218Z,1029.018925956
2022-09-04T08:53:32.233Z,1029.018925956
2022-09-04T08:54:32.230Z,1028.9173345919999
2022-09-04T08:55:32.236Z,1028.9173345919999
2022-09-04T08:56:32.237Z,1029.12051732
2022-09-04T08:57:32.246Z,1028.815743228
2022-09-04T08:58:32.194Z,1028.9173345919999
2022-09-04T08:59:32.227Z,1028.9173345919999
2022-09-04T09:00:32.244Z,1028.815743228
2022-09-04T09:01:32.339Z,1029.018925956
2022-09-04T09:02:32.351Z,1028.9173345919999
2022-09-04T09:03:32.267Z,1028.9173345919999
2022-09-04T09:04:32.211Z,1028.714151864
2022-09-04T09:05:32.365Z,1028.815743228
2022-09-04T09:06:32.239Z,1029.12051732
2022-09-04T09:07:32.238Z,1029.018925956
2022-09-04T09:08:32.413Z,1029.018925956
2022-09-04T09:09:32.226Z,1029.018925956
2022-09-04T09:10:32.213Z,1029.12051732
2022-09-04T09:11:32.216Z,1029.222108684
2022-09-04T09:12:41.441Z,1029.018925956
2022-09-04T09:13:32.241Z,1029.018925956
2022-09-04T09:14:32.216Z,1028.815743228
2022-09-04T09:15:32.255Z,1028.9173345919999
2022-09-04T09:16:32.437Z,1029.222108684
2022-09-04T09:17:34.434Z,1029.222108684
2022-09-04T09:18:32.248Z,1028.9173345919999
2022-09-04T09:19:32.208Z,1029.222108684
2022-09-04T09:20:32.262Z,1028.9173345919999
2022-09-04T09:21:32.319Z,1029.018925956
2022-09-04T09:22:32.230Z,1029.12051732
2022-09-04T09:23:32.305Z,1029.018925956
2022-09-04T09:24:32.213Z,1029.222108684
2022-09-04T09:25:32.223Z,1029.12051732
2022-09-04T09:26:32.249Z,1028.9173345919999
2022-09-04T09:27:32.213Z,1029.12051732
2022-09-04T09:28:32.224Z,1029.12051732
2022-09-04T09:29:32.210Z,1029.018925956
2022-09-04T09:30:32.258Z,1029.222108684
2022-09-04T09:31:32.180Z,1029.12051732
2022-09-04T09:32:32.222Z,1029.12051732
2022-09-04T09:33:32.242Z,1029.018925956
2022-09-04T09:34:32.217Z,1029.12051732
2022-09-04T09:35:32.206Z,1029.018925956
2022-09-04T09:36:32.225Z,1029.12051732
2022-09-04T09:37:32.219Z,1029.222108684
2022-09-04T09:38:32.226Z,1029.018925956
2022-09-04T09:39:32.263Z,1028.815743228
2022-09-04T09:40:32.205Z,1029.222108684
2022-09-04T09:41:32.226Z,1029.12051732
2022-09-04T09:42:32.226Z,1029.12051732
2022-09-04T09:43:32.331Z,1029.018925956
2022-09-04T09:44:32.239Z,1029.12051732
2022-09-04T09:45:32.215Z,1029.018925956
2022-09-04T09:46:32.222Z,1029.323700048
2022-09-04T09:47:32.414Z,1029.12051732
2022-09-04T09:48:32.223Z,1029.12051732
2022-09-04T09:49:32.248Z,1029.12051732
2022-09-04T09:50:32.235Z,1029.018925956
2022-09-04T09:51:32.204Z,1029.12051732